createdAt,value
2022-09-07T00:01:03.642Z,99.90
2022-09-07T00:03:31.014Z,99.90
2022-09-07T00:05:58.451Z,99.90
2022-09-07T00:08:27.740Z,99.90
2022-09-07T00:11:02.214Z,99.90
2022-09-07T00:13:37.566Z,99.90
2022-09-07T00:16:12.345Z,99.90
2022-09-07T00:18:45.098Z,99.90
2022-09-07T00:21:15.309Z,99.90
2022-09-07T00:23:42.720Z,99.90
2022-09-07T00:26:15.178Z,99.90
2022-09-07T00:28:43.828Z,99.90
2022-09-07T00:31:15.516Z,99.90
2022-09-07T00:33:43.747Z,99.90
2022-09-07T00:36:11.265Z,99.90
2022-09-07T00:38:39.057Z,99.90
2022-09-07T00:41:06.644Z,99.90
2022-09-07T00:43:35.253Z,99.90
2022-09-07T00:46:05.048Z,99.90
2022-09-07T00:49:11.640Z,99.90
2022-09-07T00:51:50.532Z,99.90
2022-09-07T00:54:25.221Z,99.90
2022-09-07T00:56:54.211Z,99.90
2022-09-07T00:59:30.878Z,99.90
2022-09-07T01:01:58.368Z,99.90
2022-09-07T01:04:26.290Z,99.90
2022-09-07T01:06:55.833Z,99.90
2022-09-07T01:09:26.649Z,99.90
2022-09-07T01:11:58.869Z,99.90
2022-09-07T01:14:36.293Z,99.90
2022-09-07T01:17:32.081Z,99.90
2022-09-07T01:20:17.324Z,99.90
2022-09-07T01:23:15.005Z,99.90
2022-09-07T01:26:14.164Z,99.90
2022-09-07T01:28:42.276Z,99.90
2022-09-07T01:31:52.152Z,99.90
2022-09-07T01:34:26.529Z,99.90
2022-09-07T01:37:24.804Z,99.90
2022-09-07T01:40:06.769Z,99.90
2022-09-07T01:42:51.349Z,99.90
2022-09-07T01:45:23.693Z,99.90
2022-09-07T01:47:58.241Z,99.90
2022-09-07T01:50:44.883Z,99.90
2022-09-07T01:53:20.106Z,99.90
2022-09-07T01:56:00.863Z,99.90
2022-09-07T01:58:51.887Z,99.90
2022-09-07T02:01:56.573Z,99.90
2022-09-07T02:04:45.418Z,99.90
2022-09-07T02:07:42.656Z,99.90
2022-09-07T02:10:30.142Z,99.90
2022-09-07T02:13:16.659Z,99.90
2022-09-07T02:15:59.102Z,99.90
2022-09-07T02:18:36.681Z,99.90
2022-09-07T02:21:08.683Z,99.90
2022-09-07T02:23:44.524Z,99.90
2022-09-07T02:26:19.684Z,99.90
2022-09-07T02:28:47.745Z,99.90
2022-09-07T02:31:16.057Z,99.90
2022-09-07T02:33:43.555Z,99.90
2022-09-07T02:36:15.468Z,99.90
2022-09-07T02:38:42.568Z,99.90
2022-09-07T02:41:38.143Z,99.90
2022-09-07T02:44:10.226Z,99.90
2022-09-07T02:47:07.185Z,99.90
2022-09-07T02:50:07.897Z,99.90
2022-09-07T02:52:37.960Z,99.90
2022-09-07T02:55:32.195Z,99.90
2022-09-07T02:58:50.126Z,99.90
2022-09-07T03:01:38.239Z,99.90
2022-09-07T03:04:43.084Z,99.90
2022-09-07T03:07:17.526Z,99.90
2022-09-07T03:09:50.410Z,99.90
2022-09-07T03:12:18.166Z,99.90
2022-09-07T03:14:46.169Z,99.90
2022-09-07T03:17:14.477Z,99.90
2022-09-07T03:19:41.857Z,99.90
2022-09-07T03:22:09.034Z,99.90
2022-09-07T03:24:36.983Z,99.90
2022-09-07T03:27:04.365Z,99.90
2022-09-07T03:29:31.583Z,99.90
2022-09-07T03:31:58.784Z,99.90
2022-09-07T03:34:26.095Z,99.90
2022-09-07T03:36:53.270Z,99.90
2022-09-07T03:39:23.839Z,99.90
2022-09-07T03:41:51.263Z,99.90
2022-09-07T03:44:18.403Z,99.90
2022-09-07T03:46:45.708Z,99.90
2022-09-07T03:49:12.988Z,99.90
2022-09-07T03:51:40.049Z,99.90
2022-09-07T03:54:07.358Z,99.90
2022-09-07T03:56:34.845Z,99.90
2022-09-07T03:59:02.224Z,99.90
2022-09-07T04:01:29.576Z,99.90
2022-09-07T04:04:02.692Z,99.90
2022-09-07T04:06:30.891Z,99.90
2022-09-07T04:09:02.682Z,99.90
2022-09-07T04:11:29.794Z,99.90
2022-09-07T04:13:57.040Z,99.90
2022-09-07T04:16:27.134Z,99.90
2022-09-07T04:18:59.390Z,99.90
2022-09-07T04:21:29.936Z,99.90
2022-09-07T04:23:58.002Z,99.90
2022-09-07T04:26:31.760Z,99.90
2022-09-07T04:29:01.261Z,99.90
2022-09-07T04:31:28.865Z,99.90
2022-09-07T04:33:56.638Z,99.90
2022-09-07T04:36:26.845Z,99.90
2022-09-07T04:39:03.806Z,99.90
2022-09-07T04:41:33.629Z,99.90
2022-09-07T04:44:03.868Z,99.90
2022-09-07T04:46:34.673Z,99.90
2022-09-07T04:49:07.285Z,99.90
2022-09-07T04:51:35.761Z,99.90
2022-09-07T04:54:04.089Z,99.90
2022-09-07T04:56:32.340Z,99.90
2022-09-07T04:59:01.737Z,99.90
2022-09-07T05:01:30.025Z,99.90
2022-09-07T05:04:00.346Z,99.90
2022-09-07T05:06:28.265Z,99.90
2022-09-07T05:08:55.850Z,99.90
2022-09-07T05:11:29.217Z,99.90
2022-09-07T05:14:03.411Z,99.90
2022-09-07T05:16:31.764Z,99.90
2022-09-07T05:19:02.458Z,99.90
2022-09-07T05:21:34.003Z,99.90
2022-09-07T05:24:02.170Z,99.90
2022-09-07T05:26:33.458Z,99.90
2022-09-07T05:31:50.124Z,99.90
2022-09-07T05:34:33.435Z,99.90
2022-09-07T05:37:02.318Z,99.90
2022-09-07T05:39:30.282Z,99.90
2022-09-07T05:41:57.875Z,99.90
2022-09-07T05:47:13.840Z,99.90
2022-09-07T05:49:41.252Z,99.90
2022-09-07T05:52:08.597Z,99.90
2022-09-07T05:54:36.075Z,99.90
2022-09-07T05:57:03.805Z,99.90
2022-09-07T05:59:31.482Z,99.90
2022-09-07T06:01:59.253Z,99.90
2022-09-07T06:04:26.691Z,99.90
2022-09-07T06:12:35.024Z,99.90
2022-09-07T06:15:02.765Z,99.90
2022-09-07T06:17:31.549Z,99.90
2022-09-07T06:19:59.588Z,99.90
2022-09-07T06:22:31.199Z,99.90
2022-09-07T06:25:04.770Z,99.90
2022-09-07T06:27:32.799Z,99.90
2022-09-07T06:30:00.254Z,99.90
2022-09-07T06:32:43.628Z,99.90
2022-09-07T06:35:11.989Z,99.90
2022-09-07T06:37:39.926Z,99.90
2022-09-07T06:40:09.009Z,99.90
2022-09-07T06:42:36.851Z,99.90
2022-09-07T06:45:04.945Z,99.90
2022-09-07T06:47:35.213Z,99.90
2022-09-07T06:50:02.429Z,99.90
2022-09-07T06:52:29.794Z,99.90
2022-09-07T06:57:27.231Z,99.90
2022-09-07T06:59:54.566Z,99.90
2022-09-07T07:02:21.755Z,99.90
2022-09-07T07:04:50.312Z,99.90
2022-09-07T07:07:17.712Z,99.90
2022-09-07T07:09:45.091Z,99.90
2022-09-07T07:12:13.226Z,99.90
2022-09-07T07:14:44.779Z,99.90
2022-09-07T07:18:28.657Z,99.90
2022-09-07T07:20:56.298Z,99.90
2022-09-07T07:23:23.827Z,99.90
2022-09-07T07:25:51.281Z,99.90
2022-09-07T07:31:19.989Z,99.90
2022-09-07T07:33:49.163Z,99.90
2022-09-07T07:36:30.045Z,99.90
2022-09-07T07:46:06.849Z,99.90
2022-09-07T07:48:37.889Z,99.90
2022-09-07T07:51:13.978Z,99.90
2022-09-07T07:53:42.727Z,99.90
2022-09-07T07:56:12.263Z,99.90
2022-09-07T07:58:43.767Z,99.90
2022-09-07T08:01:15.153Z,99.90
2022-09-07T08:03:45.454Z,99.90
2022-09-07T08:06:16.896Z,99.90
2022-09-07T08:08:48.089Z,99.90
2022-09-07T08:11:20.985Z,99.90
2022-09-07T08:13:52.415Z,99.90
2022-09-07T08:16:19.857Z,99.90
2022-09-07T08:18:50.441Z,99.90
2022-09-07T08:21:17.932Z,99.90
2022-09-07T08:23:47.171Z,99.90
2022-09-07T08:26:14.669Z,99.90
2022-09-07T08:28:46.659Z,99.90
2022-09-07T08:31:18.898Z,99.90
2022-09-07T08:33:46.549Z,99.90
2022-09-07T08:36:20.810Z,99.90
2022-09-07T08:38:49.074Z,99.90
2022-09-07T08:41:37.644Z,99.90
2022-09-07T08:44:26.682Z,99.90
2022-09-07T08:48:04.902Z,99.90
2022-09-07T08:50:39.941Z,99.90
2022-09-07T08:53:16.970Z,99.90
2022-09-07T08:56:10.399Z,99.90
2022-09-07T08:58:53.515Z,99.90
2022-09-07T09:01:38.528Z,99.90
2022-09-07T09:04:26.328Z,99.90
2022-09-07T09:07:40.671Z,99.90
2022-09-07T09:10:28.374Z,99.90
2022-09-07T09:13:19.358Z,99.90
2022-09-07T09:16:16.371Z,99.90
2022-09-07T09:19:17.039Z,99.90
2022-09-07T09:21:45.193Z,99.90
2022-09-07T09:24:20.431Z,99.90
2022-09-07T09:26:54.816Z,99.90
2022-09-07T09:29:24.176Z,99.90
2022-09-07T09:31:54.512Z,99.90
2022-09-07T09:34:23.997Z,99.90
2022-09-07T09:36:56.769Z,99.90
2022-09-07T09:39:36.393Z,99.90
2022-09-07T09:42:22.734Z,99.90
2022-09-07T09:44:51.465Z,99.90
2022-09-07T09:47:33.432Z,99.90
2022-09-07T09:53:53.171Z,99.90
2022-09-07T09:56:35.514Z,99.90
2022-09-07T10:05:38.232Z,99.90
2022-09-07T10:08:33.944Z,99.90
2022-09-07T10:11:13.789Z,99.90
2022-09-07T10:13:58.393Z,99.90
2022-09-07T10:16:44.376Z,99.90
2022-09-07T10:19:32.795Z,99.90
2022-09-07T10:22:04.473Z,99.90
2022-09-07T10:24:42.681Z,99.90
2022-09-07T10:27:33.497Z,99.90
2022-09-07T10:30:02.633Z,99.90
2022-09-07T10:32:32.696Z,99.90
2022-09-07T10:35:39.704Z,99.90
2022-09-07T10:38:26.133Z,99.90
2022-09-07T10:41:10.115Z,99.00
2022-09-07T10:43:50.548Z,98.60
2022-09-07T10:46:59.897Z,98.40
2022-09-07T10:53:29.940Z,97.90
2022-09-07T10:56:13.054Z,97.80
2022-09-07T10:59:04.737Z,96.00
2022-09-07T11:02:09.325Z,95.80
2022-09-07T11:05:15.619Z,96.00
2022-09-07T11:08:24.200Z,95.50
2022-09-07T11:11:08.210Z,93.80
2022-09-07T11:14:02.161Z,92.90
2022-09-07T11:16:51.321Z,91.60
2022-09-07T11:19:45.570Z,91.60
2022-09-07T11:22:26.146Z,91.30
2022-09-07T11:25:35.881Z,90.00
2022-09-07T11:28:17.006Z,89.60
2022-09-07T11:31:00.444Z,90.00
2022-09-07T11:36:59.007Z,85.70
2022-09-07T11:39:55.635Z,84.50
2022-09-07T11:42:59.814Z,82.20
2022-09-07T11:45:48.820Z,80.90
2022-09-07T11:48:31.094Z,79.80
2022-09-07T11:51:42.950Z,80.40
2022-09-07T11:54:41.994Z,80.70
2022-09-07T11:57:44.239Z,79.90
2022-09-07T12:00:28.033Z,79.30
2022-09-07T12:03:36.144Z,78.50
2022-09-07T12:06:33.983Z,77.10
2022-09-07T12:10:08.455Z,76.10
2022-09-07T12:12:48.100Z,76.40
2022-09-07T12:15:21.299Z,74.80
2022-09-07T12:18:11.567Z,72.90
2022-09-07T12:20:49.906Z,72.70
2022-09-07T12:23:17.149Z,72.90
2022-09-07T12:25:50.598Z,72.90
2022-09-07T12:28:37.563Z,70.50
2022-09-07T12:31:12.807Z,71.80
2022-09-07T12:33:41.346Z,70.60
2022-09-07T12:36:26.866Z,71.20
2022-09-07T12:39:33.192Z,70.30
2022-09-07T12:45:28.783Z,70.30
2022-09-07T12:48:15.495Z,71.20
2022-09-07T12:51:16.067Z,70.60
2022-09-07T12:54:01.321Z,68.70
2022-09-07T12:56:46.624Z,67.70
2022-09-07T12:59:51.551Z,67.70
2022-09-07T13:03:06.183Z,67.00
2022-09-07T13:09:34.038Z,65.60
2022-09-07T13:15:38.729Z,66.00
2022-09-07T13:18:12.685Z,64.20
2022-09-07T13:20:41.652Z,64.50
2022-09-07T13:23:24.792Z,64.10
2022-09-07T13:25:56.189Z,62.50
2022-09-07T13:28:56.233Z,63.00
2022-09-07T13:31:46.626Z,62.40
2022-09-07T13:35:29.276Z,62.90
2022-09-07T13:38:16.505Z,63.50
2022-09-07T13:40:48.132Z,63.60
2022-09-07T13:43:36.455Z,62.50
2022-09-07T13:46:25.859Z,61.40
2022-09-07T13:49:08.902Z,61.30
2022-09-07T13:51:49.817Z,60.60
2022-09-07T13:54:50.867Z,59.50
2022-09-07T13:57:57.327Z,59.30
2022-09-07T14:00:24.925Z,59.00
2022-09-07T14:02:56.806Z,59.70
2022-09-07T14:05:24.599Z,59.30
2022-09-07T14:07:51.952Z,59.30
2022-09-07T14:10:25.974Z,59.50
2022-09-07T14:13:06.627Z,59.00
2022-09-07T14:15:45.285Z,59.10
2022-09-07T14:18:16.379Z,59.00
2022-09-07T14:20:53.603Z,59.30
2022-09-07T14:23:30.284Z,58.60
2022-09-07T14:26:27.483Z,58.90
2022-09-07T14:28:57.251Z,59.60
2022-09-07T14:31:43.206Z,60.30
2022-09-07T14:34:10.612Z,59.30
2022-09-07T14:36:45.609Z,59.60
2022-09-07T14:39:17.219Z,58.90
2022-09-07T14:41:45.771Z,58.60
2022-09-07T14:44:39.177Z,58.40
2022-09-07T14:47:30.588Z,57.60
2022-09-07T14:50:07.051Z,57.90
2022-09-07T14:53:33.649Z,58.00
2022-09-07T14:55:40.532Z,58.00
2022-09-07T14:58:13.296Z,58.40
2022-09-07T15:00:46.322Z,58.20
2022-09-07T15:03:32.962Z,58.60
2022-09-07T15:09:38.310Z,58.60
2022-09-07T15:12:36.035Z,58.70
2022-09-07T15:15:26.718Z,57.70
2022-09-07T15:18:06.093Z,57.60
2022-09-07T15:20:45.183Z,57.60
2022-09-07T15:23:15.917Z,57.70
2022-09-07T15:25:50.847Z,57.90
2022-09-07T15:34:12.437Z,58.90
2022-09-07T15:36:44.129Z,59.00
2022-09-07T15:39:25.197Z,58.90
2022-09-07T15:41:52.965Z,58.60
2022-09-07T15:44:24.894Z,59.00
2022-09-07T15:49:47.452Z,58.50
2022-09-07T15:52:16.658Z,58.50
2022-09-07T15:54:43.776Z,58.30
2022-09-07T15:59:59.096Z,57.40
2022-09-07T16:05:16.989Z,57.50
2022-09-07T16:10:31.906Z,57.40
2022-09-07T16:13:02.236Z,57.30
2022-09-07T16:15:32.266Z,57.50
2022-09-07T16:17:59.680Z,57.80
2022-09-07T16:20:32.047Z,58.20
2022-09-07T16:23:16.390Z,58.30
2022-09-07T16:25:57.313Z,58.30
2022-09-07T16:28:25.027Z,57.70
2022-09-07T16:30:52.362Z,58.00
2022-09-07T16:33:19.623Z,58.20
2022-09-07T16:36:13.071Z,58.30
2022-09-07T16:38:44.431Z,58.60
2022-09-07T16:41:22.830Z,58.60
2022-09-07T16:43:50.375Z,59.00
2022-09-07T16:46:21.507Z,59.40
2022-09-07T16:48:49.323Z,59.30
2022-09-07T16:51:22.770Z,59.40
2022-09-07T16:53:53.596Z,59.50
2022-09-07T16:56:24.983Z,59.60
2022-09-07T16:58:56.274Z,59.80
2022-09-07T17:01:28.526Z,59.90
2022-09-07T17:03:56.007Z,60.40
2022-09-07T17:06:26.111Z,60.80
2022-09-07T17:08:53.792Z,61.20
2022-09-07T17:11:30.962Z,61.80
2022-09-07T17:13:59.562Z,62.50
2022-09-07T17:16:34.741Z,63.00
2022-09-07T17:21:52.023Z,63.40
2022-09-07T17:24:19.913Z,63.90
2022-09-07T17:26:47.463Z,63.90
2022-09-07T17:29:14.751Z,64.30
2022-09-07T17:34:30.742Z,64.40
2022-09-07T17:37:00.646Z,64.20
2022-09-07T17:39:31.301Z,64.10
2022-09-07T17:42:01.438Z,63.80
2022-09-07T17:44:37.654Z,63.80
2022-09-07T17:47:06.377Z,64.20
2022-09-07T17:49:33.497Z,64.40
2022-09-07T17:52:01.215Z,64.90
2022-09-07T17:54:31.054Z,65.40
2022-09-07T17:56:58.566Z,65.90
2022-09-07T18:02:14.113Z,67.20
2022-09-07T18:04:41.295Z,67.60
2022-09-07T18:07:08.544Z,68.00
2022-09-07T18:09:35.839Z,69.10
2022-09-07T18:12:03.969Z,69.60
2022-09-07T18:14:31.356Z,70.00
2022-09-07T18:16:58.542Z,70.50
2022-09-07T18:19:26.002Z,71.50
2022-09-07T18:21:53.305Z,72.40
2022-09-07T18:24:24.373Z,73.00
2022-09-07T18:26:53.652Z,73.80
2022-09-07T18:29:29.446Z,74.20
2022-09-07T18:32:00.019Z,75.10
2022-09-07T18:34:28.955Z,75.40
2022-09-07T18:36:57.585Z,76.30
2022-09-07T18:39:25.913Z,77.40
2022-09-07T18:41:55.151Z,78.10
2022-09-07T18:47:16.214Z,79.70
2022-09-07T18:49:48.277Z,80.20
2022-09-07T18:55:02.526Z,81.60
2022-09-07T18:57:48.281Z,82.60
2022-09-07T19:00:16.003Z,83.90
2022-09-07T19:02:43.368Z,83.30
2022-09-07T19:07:59.716Z,84.40
2022-09-07T19:10:26.991Z,85.10
2022-09-07T19:12:54.264Z,85.40
2022-09-07T19:15:21.487Z,85.80
2022-09-07T19:17:48.638Z,86.40
2022-09-07T19:20:15.905Z,86.60
2022-09-07T19:22:43.095Z,87.00
2022-09-07T19:25:10.885Z,87.60
2022-09-07T19:27:38.022Z,87.90
2022-09-07T19:30:05.613Z,88.10
2022-09-07T19:32:36.007Z,88.40
2022-09-07T19:35:03.258Z,88.90
2022-09-07T19:37:32.378Z,89.10
2022-09-07T19:39:59.776Z,89.20
2022-09-07T19:42:26.989Z,89.50
2022-09-07T19:44:54.709Z,89.90
2022-09-07T19:47:23.514Z,90.10
2022-09-07T19:49:52.342Z,90.20
2022-09-07T19:52:19.525Z,90.30
2022-09-07T19:54:46.643Z,90.50
2022-09-07T19:57:13.729Z,90.80
2022-09-07T19:59:40.824Z,91.10
2022-09-07T20:02:10.124Z,91.20
2022-09-07T20:04:37.285Z,91.50
2022-09-07T20:07:04.537Z,91.60
2022-09-07T20:09:31.621Z,91.80
2022-09-07T20:11:58.907Z,92.00
2022-09-07T20:14:26.017Z,92.30
2022-09-07T20:16:53.144Z,92.60
2022-09-07T20:19:20.243Z,92.80
2022-09-07T20:21:48.376Z,93.00
2022-09-07T20:24:22.107Z,93.20
2022-09-07T20:26:49.793Z,93.20
2022-09-07T20:29:27.279Z,93.30
2022-09-07T20:31:58.934Z,93.60
2022-09-07T20:34:28.271Z,93.80
2022-09-07T20:36:56.979Z,94.00
2022-09-07T20:39:24.365Z,94.00
2022-09-07T20:41:51.669Z,93.80
2022-09-07T20:44:19.426Z,93.90
2022-09-07T20:46:47.060Z,93.90
2022-09-07T20:49:14.245Z,93.90
2022-09-07T20:51:41.417Z,94.20
2022-09-07T20:54:08.698Z,94.30
2022-09-07T20:56:36.025Z,94.80
2022-09-07T20:59:04.186Z,95.00
2022-09-07T21:01:32.402Z,95.00
2022-09-07T21:04:01.046Z,95.10
2022-09-07T21:06:30.978Z,95.20
2022-09-07T21:08:59.348Z,95.70
2022-09-07T21:11:36.587Z,95.70
2022-09-07T21:14:13.519Z,96.80
2022-09-07T21:16:41.092Z,96.80
2022-09-07T21:19:12.581Z,96.70
2022-09-07T21:21:42.882Z,96.90
2022-09-07T21:24:20.485Z,96.80
2022-09-07T21:26:49.433Z,96.90
2022-09-07T21:29:23.897Z,96.60
2022-09-07T21:31:54.603Z,96.70
2022-09-07T21:34:22.824Z,96.80
2022-09-07T21:36:50.794Z,96.70
2022-09-07T21:39:19.115Z,97.10
2022-09-07T21:41:46.346Z,97.60
2022-09-07T21:44:15.960Z,97.50
2022-09-07T21:46:43.787Z,97.50
2022-09-07T21:49:11.764Z,97.50
2022-09-07T21:51:39.325Z,97.60
2022-09-07T21:54:06.816Z,97.50
2022-09-07T21:56:33.985Z,97.50
2022-09-07T21:59:38.904Z,97.40
2022-09-07T22:02:06.297Z,97.80
2022-09-07T22:04:33.588Z,97.70
2022-09-07T22:07:00.679Z,97.80
2022-09-07T22:09:27.820Z,97.90
2022-09-07T22:11:54.976Z,97.90
2022-09-07T22:14:22.058Z,98.10
2022-09-07T22:16:49.132Z,98.20
2022-09-07T22:19:16.279Z,98.10
2022-09-07T22:22:02.246Z,98.30
2022-09-07T22:24:29.698Z,98.60
2022-09-07T22:26:57.291Z,98.40
2022-09-07T22:29:24.299Z,98.50
2022-09-07T22:31:51.406Z,98.30
2022-09-07T22:34:18.689Z,98.30
2022-09-07T22:36:46.416Z,98.40
2022-09-07T22:39:17.979Z,98.30
2022-09-07T22:41:47.351Z,98.50
2022-09-07T22:44:18.726Z,98.40
2022-09-07T22:46:47.592Z,98.40
2022-09-07T22:49:17.042Z,98.60
2022-09-07T22:51:45.402Z,98.80
2022-09-07T22:54:12.726Z,98.70
2022-09-07T22:56:40.723Z,98.80
2022-09-07T22:59:10.477Z,99.10
2022-09-07T23:01:38.415Z,99.10
2022-09-07T23:04:07.073Z,99.20
2022-09-07T23:06:38.248Z,99.10
2022-09-07T23:09:10.412Z,99.20
2022-09-07T23:11:38.453Z,99.40
2022-09-07T23:14:12.030Z,99.20
2022-09-07T23:16:39.226Z,99.50
2022-09-07T23:19:06.786Z,99.40
2022-09-07T23:21:33.808Z,99.50
2022-09-07T23:24:01.347Z,99.60
2022-09-07T23:26:31.048Z,99.80
2022-09-07T23:29:01.893Z,99.90
2022-09-07T23:31:32.804Z,99.90
2022-09-07T23:34:01.919Z,99.90
2022-09-07T23:36:29.843Z,99.90
2022-09-07T23:38:59.450Z,99.90
2022-09-07T23:41:27.676Z,99.90
2022-09-07T23:43:55.876Z,99.90
2022-09-07T23:46:23.806Z,99.90
2022-09-07T23:48:51.709Z,99.90
2022-09-07T23:51:23.418Z,99.90
2022-09-07T23:53:52.224Z,99.90
2022-09-07T23:56:19.994Z,99.90
2022-09-07T23:58:47.147Z,99.90
